createdAt,value
2022-12-11T00:00:46.464Z,8.88
2022-12-11T00:03:16.061Z,8.13
2022-12-11T00:05:43.878Z,8.90
2022-12-11T00:08:11.284Z,9.02
2022-12-11T00:10:38.297Z,8.65
2022-12-11T00:13:05.315Z,7.68
2022-12-11T00:15:32.217Z,8.57
2022-12-11T00:17:58.834Z,7.95
2022-12-11T00:20:25.423Z,8.75
2022-12-11T00:22:51.982Z,8.38
2022-12-11T00:25:18.576Z,8.65
2022-12-11T00:27:47.381Z,9.23
2022-12-11T00:30:14.752Z,9.20
2022-12-11T00:32:41.444Z,7.05
2022-12-11T00:35:08.861Z,7.75
2022-12-11T00:37:35.823Z,9.77
2022-12-11T00:40:02.593Z,8.95
2022-12-11T00:42:29.189Z,8.23
2022-12-11T00:44:56.518Z,7.25
2022-12-11T00:47:23.104Z,8.15
2022-12-11T00:49:50.261Z,9.80
2022-12-11T00:52:18.052Z,9.02
2022-12-11T00:54:45.325Z,9.10
2022-12-11T00:57:12.030Z,10.07
2022-12-11T00:59:38.859Z,9.38
2022-12-11T01:02:05.434Z,9.18
2022-12-11T01:04:32.321Z,9.38
2022-12-11T01:06:58.912Z,8.35
2022-12-11T01:09:44.187Z,9.52
2022-12-11T01:12:10.785Z,7.22
2022-12-11T01:14:37.397Z,8.95
2022-12-11T01:17:04.068Z,8.40
2022-12-11T01:19:30.918Z,9.07
2022-12-11T01:21:57.489Z,8.07
2022-12-11T01:24:24.140Z,8.10
2022-12-11T01:26:50.759Z,7.93
2022-12-11T01:29:17.343Z,8.85
2022-12-11T01:31:44.060Z,7.97
2022-12-11T01:34:10.635Z,8.02
2022-12-11T01:36:37.244Z,8.07
2022-12-11T01:39:04.006Z,9.63
2022-12-11T01:41:30.714Z,8.00
2022-12-11T01:44:03.347Z,8.18
2022-12-11T01:46:31.462Z,9.33
2022-12-11T01:48:59.834Z,8.95
2022-12-11T01:51:29.054Z,8.65
2022-12-11T01:54:10.974Z,8.10
2022-12-11T01:56:39.690Z,8.50
2022-12-11T01:59:09.004Z,7.93
2022-12-11T02:01:44.298Z,8.30
2022-12-11T02:04:12.620Z,7.38
2022-12-11T02:06:40.858Z,8.77
2022-12-11T02:09:11.935Z,10.43
2022-12-11T02:12:01.442Z,9.48
2022-12-11T02:15:05.295Z,8.63
2022-12-11T02:17:45.297Z,9.23
2022-12-11T02:20:24.492Z,10.10
2022-12-11T02:23:04.011Z,7.82
2022-12-11T02:25:49.101Z,8.07
2022-12-11T02:28:18.831Z,7.25
2022-12-11T02:30:57.414Z,8.38
2022-12-11T02:33:34.272Z,8.05
2022-12-11T02:36:01.892Z,7.53
2022-12-11T02:38:32.600Z,7.90
2022-12-11T02:41:01.004Z,9.93
2022-12-11T02:43:29.075Z,9.25
2022-12-11T02:45:57.645Z,9.68
2022-12-11T02:48:24.723Z,8.45
2022-12-11T02:50:56.840Z,9.90
2022-12-11T02:53:28.794Z,9.13
2022-12-11T02:56:18.905Z,9.50
2022-12-11T02:58:55.341Z,9.95
2022-12-11T03:01:26.121Z,22.02
2022-12-11T03:03:54.268Z,12.68
2022-12-11T03:06:24.336Z,12.70
2022-12-11T03:08:52.007Z,12.35
2022-12-11T03:11:18.666Z,12.30
2022-12-11T03:13:45.570Z,10.40
2022-12-11T03:16:33.964Z,9.65
2022-12-11T03:19:47.705Z,9.27
2022-12-11T03:22:25.530Z,10.43
2022-12-11T03:25:01.075Z,10.88
2022-12-11T03:27:36.733Z,10.20
2022-12-11T03:30:10.914Z,11.80
2022-12-11T03:32:51.876Z,11.57
2022-12-11T03:35:32.992Z,11.80
2022-12-11T03:38:05.642Z,9.38
2022-12-11T03:40:35.646Z,7.83
2022-12-11T03:43:03.251Z,7.07
2022-12-11T03:45:30.418Z,7.80
2022-12-11T03:47:59.578Z,7.18
2022-12-11T03:50:29.809Z,7.45
2022-12-11T03:52:58.166Z,7.55
2022-12-11T03:55:26.637Z,9.07
2022-12-11T03:57:53.258Z,9.68
2022-12-11T04:00:21.798Z,9.35
2022-12-11T04:03:12.692Z,9.55
2022-12-11T04:05:52.181Z,8.85
2022-12-11T04:08:23.434Z,10.13
2022-12-11T04:11:13.065Z,9.50
2022-12-11T04:13:41.331Z,9.70
2022-12-11T04:16:09.053Z,12.07
2022-12-11T04:18:54.481Z,12.40
2022-12-11T04:21:40.099Z,11.18
2022-12-11T04:24:16.439Z,10.85
2022-12-11T04:26:47.766Z,10.02
2022-12-11T04:29:15.313Z,12.70
2022-12-11T04:31:42.002Z,14.70
2022-12-11T04:34:09.056Z,14.02
2022-12-11T04:36:36.071Z,12.45
2022-12-11T04:39:03.402Z,12.65
2022-12-11T04:41:30.051Z,10.90
2022-12-11T04:43:56.665Z,10.55
2022-12-11T04:46:24.499Z,9.13
2022-12-11T04:48:57.026Z,9.13
2022-12-11T04:51:24.443Z,9.23
2022-12-11T04:53:51.054Z,9.52
2022-12-11T04:56:17.740Z,8.93
2022-12-11T04:58:45.223Z,8.63
2022-12-11T05:01:14.602Z,9.50
2022-12-11T05:03:41.574Z,12.57
2022-12-11T05:06:10.132Z,14.60
2022-12-11T05:08:38.532Z,21.05
2022-12-11T05:11:07.921Z,24.33
2022-12-11T05:13:34.622Z,21.17
2022-12-11T05:16:04.547Z,19.65
2022-12-11T05:18:31.300Z,20.65
2022-12-11T05:21:00.159Z,21.92
2022-12-11T05:23:27.292Z,18.90
2022-12-11T05:25:59.480Z,16.08
2022-12-11T05:28:28.044Z,13.80
2022-12-11T05:30:59.770Z,15.07
2022-12-11T05:33:26.914Z,13.68
2022-12-11T05:35:53.474Z,8.98
2022-12-11T05:38:20.503Z,8.02
2022-12-11T05:40:59.919Z,8.77
2022-12-11T05:43:29.030Z,8.52
2022-12-11T05:45:57.086Z,8.63
2022-12-11T05:48:23.671Z,11.95
2022-12-11T05:51:00.040Z,9.57
2022-12-11T05:53:27.088Z,8.05
2022-12-11T05:55:53.677Z,7.25
2022-12-11T05:58:20.856Z,7.97
2022-12-11T06:00:48.046Z,9.32
2022-12-11T06:03:14.708Z,10.90
2022-12-11T06:05:42.312Z,30.13
2022-12-11T06:08:09.456Z,48.45
2022-12-11T06:10:36.151Z,31.35
2022-12-11T06:13:03.059Z,19.88
2022-12-11T06:15:29.848Z,23.60
2022-12-11T06:17:56.449Z,20.05
2022-12-11T06:20:23.009Z,17.55
2022-12-11T06:22:49.604Z,30.65
2022-12-11T06:25:16.161Z,37.15
2022-12-11T06:27:42.755Z,39.00
2022-12-11T06:30:09.959Z,36.00
2022-12-11T06:32:36.882Z,35.80
2022-12-11T06:35:03.673Z,34.25
2022-12-11T06:37:30.547Z,32.03
2022-12-11T06:39:57.079Z,34.80
2022-12-11T06:42:23.697Z,44.47
2022-12-11T06:44:50.355Z,53.17
2022-12-11T06:47:16.984Z,55.35
2022-12-11T06:49:43.600Z,58.30
2022-12-11T06:52:15.021Z,67.88
2022-12-11T06:54:44.710Z,70.10
2022-12-11T06:57:11.516Z,55.22
2022-12-11T06:59:38.296Z,55.80
2022-12-11T07:02:05.326Z,47.00
2022-12-11T07:04:32.162Z,42.17
2022-12-11T07:06:59.002Z,41.10
2022-12-11T07:09:25.626Z,25.75
2022-12-11T07:11:53.442Z,36.00
2022-12-11T07:14:20.456Z,29.75
2022-12-11T07:16:47.068Z,26.35
2022-12-11T07:19:13.737Z,34.78
2022-12-11T07:21:40.326Z,24.50
2022-12-11T07:24:07.881Z,9.65
2022-12-11T07:26:34.562Z,10.48
2022-12-11T07:29:01.757Z,13.05
2022-12-11T07:31:30.027Z,21.40
2022-12-11T07:34:06.886Z,19.00
2022-12-11T07:36:34.669Z,17.08
2022-12-11T07:39:01.950Z,19.83
2022-12-11T07:41:28.934Z,14.85
2022-12-11T07:43:56.438Z,12.02
2022-12-11T07:46:25.919Z,16.23
2022-12-11T07:48:52.780Z,15.27
2022-12-11T07:51:22.790Z,15.23
2022-12-11T07:53:50.115Z,16.65
2022-12-11T07:56:18.624Z,16.08
2022-12-11T07:58:45.994Z,16.02
2022-12-11T08:01:16.000Z,13.05
2022-12-11T08:03:43.639Z,13.90
2022-12-11T08:06:10.824Z,14.15
2022-12-11T08:08:38.003Z,11.27
2022-12-11T08:11:07.032Z,12.48
2022-12-11T08:13:33.857Z,14.60
2022-12-11T08:16:04.688Z,17.35
2022-12-11T08:18:31.254Z,14.73
2022-12-11T08:20:57.822Z,15.32
2022-12-11T08:23:24.419Z,14.95
2022-12-11T08:25:51.037Z,17.90
2022-12-11T08:28:17.724Z,21.10
2022-12-11T08:30:44.307Z,20.13
2022-12-11T08:33:10.902Z,21.20
2022-12-11T08:35:41.532Z,17.58
2022-12-11T08:38:08.067Z,18.10
2022-12-11T08:40:34.693Z,19.40
2022-12-11T08:43:01.278Z,17.88
2022-12-11T08:45:27.856Z,11.65
2022-12-11T08:47:54.398Z,11.73
2022-12-11T08:50:21.193Z,10.65
2022-12-11T08:52:47.735Z,11.82
2022-12-11T08:55:14.528Z,10.02
2022-12-11T08:57:41.224Z,11.95
2022-12-11T09:00:10.092Z,10.43
2022-12-11T09:02:36.853Z,10.88
2022-12-11T09:05:07.795Z,9.65
2022-12-11T09:07:35.675Z,8.68
2022-12-11T09:10:04.090Z,9.60
2022-12-11T09:12:31.227Z,10.93
2022-12-11T09:14:57.783Z,8.05
2022-12-11T09:17:24.334Z,7.03
2022-12-11T09:19:50.902Z,8.63
2022-12-11T09:22:17.543Z,9.93
2022-12-11T09:24:44.133Z,9.35
2022-12-11T09:27:10.732Z,9.20
2022-12-11T09:29:38.417Z,7.70
2022-12-11T09:32:05.421Z,8.25
2022-12-11T09:34:32.098Z,6.68
2022-12-11T09:36:59.515Z,7.28
2022-12-11T09:39:26.109Z,11.85
2022-12-11T09:42:26.547Z,6.80
2022-12-11T09:44:55.935Z,6.70
2022-12-11T09:47:34.298Z,6.75
2022-12-11T09:50:16.133Z,4.60
2022-12-11T09:52:58.129Z,5.80
2022-12-11T09:55:26.141Z,5.40
2022-12-11T09:57:52.684Z,4.28
2022-12-11T10:00:27.572Z,5.32
2022-12-11T10:02:54.229Z,5.00
2022-12-11T10:05:36.270Z,4.05
2022-12-11T10:08:17.800Z,5.72
2022-12-11T10:11:01.102Z,7.55
2022-12-11T10:13:39.601Z,4.30
2022-12-11T10:16:12.358Z,5.28
2022-12-11T10:18:40.143Z,4.40
2022-12-11T10:21:07.379Z,5.85
2022-12-11T10:23:46.853Z,10.27
2022-12-11T10:26:18.912Z,12.82
2022-12-11T10:28:45.844Z,6.80
2022-12-11T10:31:20.323Z,5.30
2022-12-11T10:33:55.301Z,6.63
2022-12-11T10:36:28.746Z,5.70
2022-12-11T10:38:55.625Z,5.53
2022-12-11T10:41:38.044Z,5.05
2022-12-11T10:44:17.776Z,4.93
2022-12-11T10:46:46.176Z,5.95
2022-12-11T10:49:28.065Z,5.72
2022-12-11T10:51:56.153Z,5.53
2022-12-11T10:54:30.906Z,6.43
2022-12-11T10:56:58.833Z,7.88
2022-12-11T10:59:44.135Z,6.32
2022-12-11T11:02:36.295Z,5.63
2022-12-11T11:05:27.632Z,5.80
2022-12-11T11:08:14.567Z,5.53
2022-12-11T11:10:54.902Z,6.00
2022-12-11T11:13:24.194Z,5.78
2022-12-11T11:16:06.824Z,4.85
2022-12-11T11:18:34.656Z,4.32
2022-12-11T11:21:02.248Z,5.07
2022-12-11T11:23:29.562Z,7.22
2022-12-11T11:26:06.510Z,6.50
2022-12-11T11:28:48.918Z,5.43
2022-12-11T11:31:16.998Z,4.75
2022-12-11T11:33:47.619Z,4.05
2022-12-11T11:36:21.781Z,4.65
2022-12-11T11:39:26.378Z,6.10
2022-12-11T11:42:01.915Z,5.65
2022-12-11T11:44:37.785Z,4.63
2022-12-11T11:47:19.853Z,4.80
2022-12-11T11:50:18.377Z,5.07
2022-12-11T11:53:18.303Z,4.55
2022-12-11T11:56:03.852Z,4.43
2022-12-11T11:58:46.854Z,4.22
2022-12-11T12:01:18.026Z,3.80
2022-12-11T12:03:47.556Z,5.05
2022-12-11T12:06:34.302Z,5.63
2022-12-11T12:09:20.764Z,4.55
2022-12-11T12:11:53.093Z,4.50
2022-12-11T12:14:54.748Z,5.85
2022-12-11T12:17:31.437Z,5.45
2022-12-11T12:20:07.295Z,4.60
2022-12-11T12:22:55.707Z,5.07
2022-12-11T12:25:40.527Z,4.93
2022-12-11T12:28:27.908Z,4.95
2022-12-11T12:31:17.003Z,5.03
2022-12-11T12:34:24.915Z,5.10
2022-12-11T12:37:14.945Z,4.35
2022-12-11T12:40:07.585Z,3.70
2022-12-11T12:42:49.233Z,3.83
2022-12-11T12:45:15.816Z,5.20
2022-12-11T12:47:46.666Z,3.95
2022-12-11T12:50:20.074Z,6.40
2022-12-11T12:52:48.637Z,6.25
2022-12-11T12:55:31.964Z,4.80
2022-12-11T12:58:20.030Z,5.38
2022-12-11T13:00:46.715Z,6.18
2022-12-11T13:03:15.311Z,7.43
2022-12-11T13:06:10.766Z,6.40
2022-12-11T13:08:48.228Z,6.38
2022-12-11T13:11:17.944Z,6.35
2022-12-11T13:13:55.015Z,7.07
2022-12-11T13:16:27.724Z,5.18
2022-12-11T13:18:54.804Z,5.82
2022-12-11T13:21:36.754Z,5.63
2022-12-11T13:24:21.328Z,11.68
2022-12-11T13:26:52.187Z,10.13
2022-12-11T13:29:31.285Z,7.03
2022-12-11T13:32:01.916Z,5.32
2022-12-11T13:34:33.871Z,5.65
2022-12-11T13:37:02.673Z,6.35
2022-12-11T13:39:38.105Z,6.43
2022-12-11T13:42:31.534Z,5.80
2022-12-11T13:44:58.987Z,6.13
2022-12-11T13:47:26.529Z,7.30
2022-12-11T13:50:16.360Z,7.68
2022-12-11T13:52:55.829Z,6.93
2022-12-11T13:55:28.380Z,7.55
2022-12-11T13:57:54.982Z,6.82
2022-12-11T14:00:32.823Z,6.18
2022-12-11T14:03:04.854Z,8.65
2022-12-11T14:05:31.654Z,6.43
2022-12-11T14:08:10.350Z,7.75
2022-12-11T14:10:38.258Z,7.88
2022-12-11T14:13:31.416Z,6.10
2022-12-11T14:15:58.074Z,6.75
2022-12-11T14:18:28.758Z,6.72
2022-12-11T14:20:58.003Z,5.32
2022-12-11T14:23:27.919Z,5.05
2022-12-11T14:26:03.476Z,5.18
2022-12-11T14:28:37.284Z,4.93
2022-12-11T14:31:06.473Z,6.50
2022-12-11T14:33:38.439Z,5.70
2022-12-11T14:36:05.760Z,5.38
2022-12-11T14:38:36.785Z,5.50
2022-12-11T14:41:13.134Z,6.22
2022-12-11T14:43:52.756Z,5.85
2022-12-11T14:46:28.954Z,4.93
2022-12-11T14:49:17.621Z,4.80
2022-12-11T14:51:45.218Z,6.32
2022-12-11T14:54:22.091Z,6.05
2022-12-11T14:56:49.126Z,7.78
2022-12-11T14:59:26.920Z,8.63
2022-12-11T15:02:03.871Z,6.32
2022-12-11T15:04:33.239Z,6.60
2022-12-11T15:07:00.439Z,4.93
2022-12-11T15:09:38.344Z,7.22
2022-12-11T15:12:23.277Z,5.60
2022-12-11T15:14:56.652Z,5.28
2022-12-11T15:17:25.531Z,4.53
2022-12-11T15:19:56.802Z,6.10
2022-12-11T15:22:32.405Z,6.43
2022-12-11T15:25:00.295Z,9.27
2022-12-11T15:27:32.739Z,12.60
2022-12-11T15:29:59.386Z,12.40
2022-12-11T15:32:26.090Z,10.10
2022-12-11T15:35:00.259Z,8.73
2022-12-11T15:37:28.144Z,13.75
2022-12-11T15:39:56.935Z,13.32
2022-12-11T15:42:26.060Z,18.33
2022-12-11T15:44:55.109Z,17.65
2022-12-11T15:47:24.634Z,22.08
2022-12-11T15:49:57.113Z,17.15
2022-12-11T15:52:23.774Z,19.05
2022-12-11T15:54:50.344Z,8.07
2022-12-11T15:57:21.247Z,10.95
2022-12-11T15:59:49.566Z,9.73
2022-12-11T16:02:16.751Z,8.15
2022-12-11T16:04:43.470Z,10.10
2022-12-11T16:07:25.657Z,9.07
2022-12-11T16:09:52.612Z,8.40
2022-12-11T16:12:19.740Z,9.02
2022-12-11T16:14:46.651Z,8.20
2022-12-11T16:17:15.019Z,12.98
2022-12-11T16:19:43.179Z,15.27
2022-12-11T16:22:10.572Z,9.02
2022-12-11T16:24:37.711Z,8.55
2022-12-11T16:27:05.479Z,9.30
2022-12-11T16:29:36.578Z,12.73
2022-12-11T16:32:04.348Z,5.95
2022-12-11T16:34:30.925Z,5.97
2022-12-11T16:36:58.880Z,7.15
2022-12-11T16:39:25.956Z,5.75
2022-12-11T16:41:52.567Z,13.70
2022-12-11T16:44:20.528Z,5.28
2022-12-11T16:46:47.495Z,4.05
2022-12-11T16:49:14.593Z,19.50
2022-12-11T16:51:41.950Z,19.55
2022-12-11T16:54:09.088Z,18.15
2022-12-11T16:56:35.995Z,16.45
2022-12-11T16:59:03.278Z,18.33
2022-12-11T17:01:30.150Z,15.55
2022-12-11T17:03:57.024Z,13.52
2022-12-11T17:06:23.608Z,12.23
2022-12-11T17:08:50.241Z,6.05
2022-12-11T17:11:19.232Z,5.95
2022-12-11T17:13:46.163Z,5.60
2022-12-11T17:16:16.653Z,6.60
2022-12-11T17:18:43.964Z,4.70
2022-12-11T17:21:13.060Z,6.18
2022-12-11T17:23:40.398Z,5.32
2022-12-11T17:26:08.866Z,4.03
2022-12-11T17:28:36.524Z,3.17
2022-12-11T17:31:18.977Z,2.80
2022-12-11T17:33:46.735Z,3.58
2022-12-11T17:36:16.119Z,6.57
2022-12-11T17:38:42.958Z,11.85
2022-12-11T17:41:15.457Z,9.98
2022-12-11T17:43:45.093Z,12.15
2022-12-11T17:46:13.739Z,6.38
2022-12-11T17:48:40.420Z,4.95
2022-12-11T17:51:09.933Z,3.42
2022-12-11T17:53:36.856Z,3.50
2022-12-11T17:56:05.842Z,9.20
2022-12-11T17:58:32.998Z,23.05
2022-12-11T18:01:00.179Z,12.48
2022-12-11T18:03:28.226Z,14.35
2022-12-11T18:05:56.962Z,14.85
2022-12-11T18:08:26.640Z,9.73
2022-12-11T18:10:54.372Z,9.70
2022-12-11T18:13:22.046Z,11.18
2022-12-11T18:16:00.175Z,9.82
2022-12-11T18:18:29.237Z,7.88
2022-12-11T18:20:56.028Z,6.15
2022-12-11T18:23:23.578Z,4.28
2022-12-11T18:25:50.199Z,5.10
2022-12-11T18:28:16.940Z,5.45
2022-12-11T18:30:43.935Z,6.97
2022-12-11T18:33:10.802Z,11.20
2022-12-11T18:35:37.477Z,9.43
2022-12-11T18:38:04.233Z,7.63
2022-12-11T18:40:30.849Z,8.15
2022-12-11T18:42:57.569Z,5.38
2022-12-11T18:45:24.306Z,7.32
2022-12-11T18:47:52.145Z,5.30
2022-12-11T18:50:18.978Z,7.45
2022-12-11T18:52:45.562Z,3.88
2022-12-11T18:55:12.539Z,3.78
2022-12-11T18:57:39.477Z,5.82
2022-12-11T19:00:07.504Z,3.20
2022-12-11T19:02:35.269Z,3.95
2022-12-11T19:05:01.890Z,6.30
2022-12-11T19:07:28.440Z,4.90
2022-12-11T19:09:54.976Z,5.03
2022-12-11T19:12:21.673Z,4.72
2022-12-11T19:14:48.880Z,2.63
2022-12-11T19:17:15.470Z,5.57
2022-12-11T19:19:43.251Z,11.45
2022-12-11T19:22:09.979Z,9.00
2022-12-11T19:24:36.601Z,5.95
2022-12-11T19:27:07.312Z,6.05
2022-12-11T19:29:36.758Z,6.00
2022-12-11T19:32:04.292Z,6.28
2022-12-11T19:34:31.292Z,9.48
2022-12-11T19:36:58.101Z,5.18
2022-12-11T19:39:25.088Z,9.50
2022-12-11T19:41:51.715Z,8.35
2022-12-11T19:44:18.454Z,9.07
2022-12-11T19:46:45.228Z,7.90
2022-12-11T19:49:12.259Z,7.05
2022-12-11T19:51:41.443Z,3.75
2022-12-11T19:54:11.215Z,3.88
2022-12-11T19:56:38.193Z,3.15
2022-12-11T19:59:08.680Z,1.10
2022-12-11T20:01:37.681Z,1.13
2022-12-11T20:04:10.413Z,1.10
2022-12-11T20:06:39.917Z,1.02
2022-12-11T20:09:11.014Z,1.10
2022-12-11T20:11:39.907Z,2.60
2022-12-11T20:14:06.780Z,2.40
2022-12-11T20:17:02.042Z,3.67
2022-12-11T20:19:20.908Z,3.28
2022-12-11T20:21:48.071Z,2.58
2022-12-11T20:24:14.773Z,2.00
2022-12-11T20:26:41.365Z,3.22
2022-12-11T20:29:08.475Z,2.10
2022-12-11T20:31:36.289Z,4.93
2022-12-11T20:34:04.134Z,3.78
2022-12-11T20:36:30.857Z,9.05
2022-12-11T20:38:57.418Z,7.78
2022-12-11T20:41:25.285Z,3.65
2022-12-11T20:43:55.364Z,3.80
2022-12-11T20:46:25.181Z,3.35
2022-12-11T20:48:52.454Z,5.30
2022-12-11T20:51:25.762Z,6.65
2022-12-11T20:53:58.481Z,7.05
2022-12-11T20:56:28.456Z,6.53
2022-12-11T20:58:55.489Z,4.80
2022-12-11T21:01:26.650Z,5.25
2022-12-11T21:03:53.668Z,7.68
2022-12-11T21:06:31.087Z,13.75
2022-12-11T21:09:00.426Z,1.48
2022-12-11T21:11:27.703Z,1.73
2022-12-11T21:13:54.549Z,1.40
2022-12-11T21:16:21.633Z,1.48
2022-12-11T21:18:48.897Z,1.83
2022-12-11T21:21:16.036Z,3.20
2022-12-11T21:23:43.077Z,6.53
2022-12-11T21:26:10.627Z,3.85
2022-12-11T21:28:37.217Z,2.17
2022-12-11T21:31:06.754Z,1.70
2022-12-11T21:33:34.004Z,1.73
2022-12-11T21:36:01.116Z,2.40
2022-12-11T21:38:28.314Z,2.50
2022-12-11T21:40:56.102Z,2.50
2022-12-11T21:43:23.453Z,2.70
2022-12-11T21:46:06.120Z,2.42
2022-12-11T21:48:33.042Z,2.20
2022-12-11T21:51:18.373Z,5.30
2022-12-11T21:53:45.661Z,4.20
2022-12-11T21:56:15.243Z,3.42
2022-12-11T21:58:42.618Z,4.20
2022-12-11T22:01:23.282Z,2.03
2022-12-11T22:03:51.034Z,1.88
2022-12-11T22:06:17.671Z,5.28
2022-12-11T22:08:46.672Z,5.57
2022-12-11T22:11:13.943Z,3.90
2022-12-11T22:13:40.502Z,4.65
2022-12-11T22:16:07.266Z,6.47
2022-12-11T22:18:33.962Z,8.07
2022-12-11T22:21:00.616Z,4.93
2022-12-11T22:23:27.233Z,9.02
2022-12-11T22:25:54.313Z,7.45
2022-12-11T22:28:20.955Z,5.65
2022-12-11T22:30:47.734Z,5.18
2022-12-11T22:33:14.755Z,6.18
2022-12-11T22:35:41.316Z,5.30
2022-12-11T22:38:08.278Z,5.07
2022-12-11T22:40:38.633Z,7.63
2022-12-11T22:43:05.210Z,4.10
2022-12-11T22:45:31.774Z,5.88
2022-12-11T22:47:58.411Z,5.80
2022-12-11T22:50:25.023Z,6.28
2022-12-11T22:52:51.658Z,6.97
2022-12-11T22:55:18.284Z,5.75
2022-12-11T22:57:44.849Z,6.03
2022-12-11T23:00:14.150Z,6.85
2022-12-11T23:02:40.883Z,10.55
2022-12-11T23:05:08.031Z,16.27
2022-12-11T23:07:34.614Z,9.77
2022-12-11T23:10:01.827Z,7.07
2022-12-11T23:12:28.473Z,5.78
2022-12-11T23:14:55.069Z,6.15
2022-12-11T23:17:21.661Z,6.28
2022-12-11T23:19:48.374Z,6.53
2022-12-11T23:22:14.944Z,5.43
2022-12-11T23:24:41.756Z,3.72
2022-12-11T23:27:08.723Z,5.57
2022-12-11T23:29:35.384Z,4.90
2022-12-11T23:32:02.321Z,4.90
2022-12-11T23:34:28.903Z,4.63
2022-12-11T23:36:55.524Z,5.03
2022-12-11T23:39:22.072Z,6.03
2022-12-11T23:41:48.650Z,7.60
2022-12-11T23:44:15.239Z,5.32
2022-12-11T23:46:42.665Z,6.53
2022-12-11T23:49:09.288Z,6.22
2022-12-11T23:51:35.952Z,15.05
2022-12-11T23:54:03.064Z,21.88
2022-12-11T23:56:30.033Z,8.00
2022-12-11T23:58:57.744Z,12.15
